Time;durP1;ratioP1;P1;durP2;ratioP2;P2;SDS_P1;SDS_P2;PMS_P1;PMS_P2;Temp;Humidity;BMP_temperature;BMP_pressure;BME280_temperature;BME280_humidity;BME280_pressure;Samples;Min_cycle;Max_cycle;Signal;HPM_P1;HPM_P2
2021/05/15 00:00:00;;;;;;;3.67;1.10;;;14.90;77.70;15.00;99209.00;;;;339589;28;88329;-92
2021/05/15 00:00:12;;;;;;;3.75;1.30;;;14.90;77.80;14.90;99207.00;;;;340206;28;83322;-91
2021/05/15 00:00:23;;;;;;;3.75;1.23;;;14.90;77.90;14.80;99200.00;;;;339869;28;88958;-92
2021/05/15 00:00:34;;;;;;;3.46;1.16;;;15.00;78.00;15.00;99198.00;;;;337635;28;83375;-92
2021/05/15 00:00:44;;;;;;;2.87;1.17;;;14.90;77.90;15.10;99202.00;;;;340045;28;86483;-91
2021/05/15 00:00:55;;;;;;;3.50;1.30;;;14.90;77.90;15.10;99200.00;;;;341706;28;83443;-92
2021/05/15 00:01:06;;;;;;;4.25;1.17;;;14.90;77.90;15.00;99211.00;;;;341272;28;88764;-92
2021/05/15 00:01:17;;;;;;;3.83;1.13;;;14.90;78.10;15.00;99197.00;;;;340297;28;83306;-92
2021/05/15 00:01:28;;;;;;;3.60;1.20;;;14.90;78.00;15.00;99198.00;;;;343989;28;87411;-92
2021/05/15 00:01:38;;;;;;;2.05;0.95;;;14.90;78.00;15.10;99199.00;;;;341731;28;83230;-92
2021/05/15 00:01:50;;;;;;;2.03;1.10;;;14.90;77.60;15.20;99205.00;;;;341299;28;87520;-91
2021/05/15 00:02:01;;;;;;;1.90;0.95;;;15.00;77.40;15.20;99206.00;;;;340273;28;83389;-92
2021/05/15 00:02:12;;;;;;;2.03;1.10;;;15.00;77.20;15.20;99205.00;;;;341421;28;87643;-93
2021/05/15 00:02:22;;;;;;;1.60;0.77;;;15.00;77.30;15.30;99203.00;;;;342732;28;83934;-91
2021/05/15 00:02:33;;;;;;;1.87;0.80;;;15.00;77.30;15.30;99201.00;;;;341167;28;86551;-92
2021/05/15 00:02:44;;;;;;;2.08;0.82;;;15.00;77.30;15.30;99200.00;;;;343039;28;82406;-90
2021/05/15 00:02:56;;;;;;;2.13;0.80;;;15.00;77.30;15.30;99202.00;;;;339873;28;87702;-91
2021/05/15 00:03:06;;;;;;;1.90;0.82;;;15.00;77.40;15.30;99202.00;;;;341136;28;83504;-92
2021/05/15 00:03:17;;;;;;;1.70;0.80;;;15.00;77.20;15.40;99199.00;;;;341106;28;88597;-92
2021/05/15 00:03:28;;;;;;;1.73;0.73;;;15.00;77.20;15.40;99205.00;;;;341498;28;83270;-93
2021/05/15 00:03:38;;;;;;;2.25;0.90;;;15.00;77.00;15.30;99197.00;;;;344105;28;87367;-92
2021/05/15 00:03:49;;;;;;;3.03;0.90;;;15.10;77.00;15.20;99199.00;;;;343042;28;83253;-91
2021/05/15 00:04:01;;;;;;;3.30;0.93;;;15.10;77.00;15.20;99195.00;;;;342057;28;86208;-91
2021/05/15 00:04:12;;;;;;;3.03;0.95;;;15.00;76.90;15.20;99197.00;;;;341719;28;82338;-92
2021/05/15 00:04:22;;;;;;;2.50;1.10;;;15.00;76.90;15.20;99188.00;;;;338708;28;86286;-91
2021/05/15 00:04:33;;;;;;;1.98;0.80;;;15.10;77.70;15.20;99200.00;;;;341728;28;82251;-91
2021/05/15 00:04:44;;;;;;;1.43;0.60;;;15.10;77.30;15.20;99190.00;;;;341455;28;86542;-91
2021/05/15 00:04:54;;;;;;;2.17;0.63;;;15.10;77.10;15.20;99200.00;;;;340311;28;83511;-93
2021/05/15 00:05:07;;;;;;;2.27;0.70;;;15.10;77.00;15.30;99196.00;;;;339902;28;88792;-92
2021/05/15 00:05:18;;;;;;;2.80;1.00;;;15.10;77.00;15.30;99196.00;;;;340278;28;82350;-92
2021/05/15 00:05:29;;;;;;;2.38;0.75;;;15.10;77.00;15.40;99196.00;;;;340044;28;87286;-94
2021/05/15 00:05:39;;;;;;;2.47;0.80;;;15.10;76.80;15.40;99199.00;;;;339070;28;83204;-91
2021/05/15 00:05:50;;;;;;;2.28;0.80;;;15.10;76.80;15.50;99196.00;;;;339820;28;86572;-92
2021/05/15 00:06:02;;;;;;;2.20;0.80;;;15.10;76.90;15.20;99199.00;;;;338212;28;83567;-91
2021/05/15 00:06:13;;;;;;;2.47;0.75;;;15.10;76.90;15.10;99192.00;;;;339895;28;86864;-92
2021/05/15 00:06:25;;;;;;;2.10;0.60;;;15.10;76.60;15.20;99198.00;;;;340317;28;82447;-91
2021/05/15 00:06:36;;;;;;;1.80;0.60;;;15.10;76.50;15.10;99182.00;;;;342692;28;87738;-92
2021/05/15 00:06:47;;;;;;;1.70;0.57;;;15.10;76.90;14.90;99191.00;;;;341746;28;83218;-92
2021/05/15 00:06:57;;;;;;;1.70;0.70;;;15.10;76.80;14.70;99196.00;;;;341134;28;87547;-91
2021/05/15 00:07:08;;;;;;;1.60;0.73;;;15.00;76.40;14.70;99182.00;;;;340313;28;83295;-92
2021/05/15 00:07:18;;;;;;;1.57;0.90;;;15.00;76.20;14.70;99193.00;;;;341275;28;87776;-92
2021/05/15 00:07:29;;;;;;;1.63;0.98;;;14.90;76.10;14.90;99190.00;;;;340421;28;83330;-91
2021/05/15 00:07:40;;;;;;;1.83;1.05;;;14.90;76.20;14.80;99196.00;;;;340057;28;87697;-92
2021/05/15 00:07:50;;;;;;;1.80;0.90;;;14.90;76.20;14.90;99190.00;;;;340419;28;82113;-93
2021/05/15 00:08:03;;;;;;;1.52;0.63;;;14.90;76.40;14.90;99192.00;;;;341311;28;87425;-92
2021/05/15 00:08:14;;;;;;;2.20;0.50;;;15.00;76.50;14.90;99188.00;;;;340225;28;82471;-90
2021/05/15 00:08:24;;;;;;;2.70;0.57;;;14.90;76.40;15.00;99189.00;;;;341396;28;87441;-92
2021/05/15 00:08:35;;;;;;;3.47;0.70;;;15.00;76.50;14.90;99186.00;;;;341664;28;82240;-91
2021/05/15 00:08:48;;;;;;;2.63;0.57;;;14.90;76.90;14.80;99193.00;;;;339921;28;88678;-91
2021/05/15 00:08:59;;;;;;;2.08;0.57;;;15.00;77.10;14.70;99191.00;;;;340261;28;83658;-92
2021/05/15 00:09:10;;;;;;;2.73;0.87;;;14.90;77.00;14.90;99185.00;;;;340053;28;87496;-92
2021/05/15 00:09:20;;;;;;;2.85;0.88;;;14.90;77.00;15.00;99188.00;;;;342944;28;83356;-90
2021/05/15 00:09:31;;;;;;;2.75;0.88;;;14.90;77.20;15.10;99188.00;;;;343661;28;87548;-93
2021/05/15 00:09:42;;;;;;;1.85;0.75;;;14.90;77.20;15.20;99192.00;;;;344469;28;83248;-93
2021/05/15 00:09:52;;;;;;;2.53;0.93;;;14.90;77.20;15.20;99189.00;;;;338667;28;86551;-92
2021/05/15 00:10:06;;;;;;;2.60;0.88;;;14.90;77.10;15.10;99187.00;;;;341973;28;83290;-93
2021/05/15 00:10:17;;;;;;;2.78;0.80;;;14.90;76.70;15.10;99184.00;;;;341280;28;89012;-92
2021/05/15 00:10:28;;;;;;;2.20;0.60;;;14.90;77.10;15.20;99185.00;;;;340282;28;83310;-90
2021/05/15 00:10:39;;;;;;;2.85;0.70;;;15.00;77.00;15.20;99191.00;;;;339826;28;87539;-91
2021/05/15 00:10:50;;;;;;;3.13;0.70;;;15.00;76.80;15.20;99191.00;;;;340422;28;82230;-90
2021/05/15 00:11:00;;;;;;;3.87;0.77;;;15.00;76.70;15.20;99182.00;;;;342732;28;86780;-91
2021/05/15 00:11:11;;;;;;;3.22;0.70;;;15.00;76.80;15.20;99187.00;;;;341617;28;82371;-91
2021/05/15 00:11:22;;;;;;;2.35;0.75;;;15.00;76.70;15.20;99187.00;;;;339999;28;87750;-91
2021/05/15 00:11:33;;;;;;;1.42;0.70;;;15.00;76.70;15.10;99188.00;;;;341729;28;83220;-92
2021/05/15 00:11:44;;;;;;;1.27;0.75;;;15.00;77.30;15.00;99187.00;;;;344114;28;88200;-91
2021/05/15 00:11:54;;;;;;;1.38;0.60;;;15.00;76.60;15.10;99180.00;;;;342775;28;82419;-92
2021/05/15 00:12:06;;;;;;;2.10;0.60;;;15.00;76.70;15.20;99182.00;;;;341214;28;87314;-92
2021/05/15 00:12:17;;;;;;;2.58;0.68;;;15.00;76.50;15.10;99183.00;;;;341384;28;82549;-92
2021/05/15 00:12:27;;;;;;;2.33;0.70;;;15.00;76.70;15.20;99184.00;;;;339650;28;87580;-92
2021/05/15 00:12:38;;;;;;;2.87;1.00;;;15.00;76.60;15.20;99184.00;;;;341363;28;82438;-92
2021/05/15 00:12:49;;;;;;;3.15;0.85;;;15.00;76.50;15.30;99178.00;;;;341404;28;86510;-92
2021/05/15 00:12:59;;;;;;;2.80;0.70;;;15.00;76.50;15.30;99180.00;;;;343886;28;82292;-92
2021/05/15 00:13:10;;;;;;;1.73;0.60;;;15.00;76.40;15.30;99184.00;;;;341251;28;87596;-91
2021/05/15 00:13:21;;;;;;;1.55;0.70;;;15.10;76.30;15.30;99187.00;;;;342942;28;83295;-92
2021/05/15 00:13:32;;;;;;;1.75;0.80;;;15.10;76.30;15.40;99175.00;;;;340050;28;87544;-92
2021/05/15 00:13:44;;;;;;;1.80;0.70;;;15.10;76.30;15.40;99184.00;;;;341775;28;82194;-92
2021/05/15 00:13:55;;;;;;;1.80;0.68;;;15.10;76.30;15.30;99187.00;;;;342657;28;88116;-92
2021/05/15 00:14:06;;;;;;;2.07;0.70;;;15.10;76.40;15.20;99176.00;;;;341661;28;83362;-92
2021/05/15 00:14:16;;;;;;;1.90;0.70;;;15.10;76.50;15.10;99175.00;;;;339939;28;87588;-92
2021/05/15 00:14:27;;;;;;;1.98;0.60;;;15.10;76.50;15.10;99174.00;;;;341711;28;83289;-93
2021/05/15 00:14:38;;;;;;;2.33;0.57;;;15.10;76.90;15.20;99177.00;;;;338581;28;87861;-91
2021/05/15 00:14:49;;;;;;;2.25;0.60;;;15.10;76.50;15.20;99179.00;;;;341639;28;82202;-92
2021/05/15 00:15:00;;;;;;;2.40;0.70;;;15.10;76.60;15.20;99177.00;;;;338557;28;88522;-90
2021/05/15 00:15:11;;;;;;;2.30;0.60;;;15.10;76.60;15.20;99171.00;;;;340293;28;82275;-92
2021/05/15 00:15:22;;;;;;;2.30;0.60;;;15.10;76.50;15.20;99179.00;;;;342604;28;88004;-91
2021/05/15 00:15:32;;;;;;;1.85;0.55;;;15.10;76.60;15.20;99176.00;;;;341327;28;83423;-92
2021/05/15 00:15:43;;;;;;;1.42;0.57;;;15.10;76.60;15.20;99172.00;;;;342696;28;87793;-92
2021/05/15 00:15:54;;;;;;;1.80;0.60;;;15.10;76.40;15.10;99170.00;;;;342922;28;83609;-91
2021/05/15 00:16:05;;;;;;;2.60;0.80;;;15.10;76.60;15.10;99181.00;;;;341277;28;88922;-92
2021/05/15 00:16:16;;;;;;;3.17;0.70;;;15.10;76.90;15.10;99173.00;;;;341611;28;83464;-92
2021/05/15 00:16:26;;;;;;;2.92;0.63;;;15.10;77.00;15.20;99170.00;;;;338511;28;86483;-92
2021/05/15 00:16:37;;;;;;;2.60;0.50;;;15.10;76.90;15.10;99167.00;;;;341568;28;82528;-92
2021/05/15 00:16:48;;;;;;;1.87;0.40;;;15.10;76.90;15.10;99178.00;;;;340017;28;87636;-92
2021/05/15 00:16:58;;;;;;;2.17;0.40;;;15.10;77.20;15.10;99168.00;;;;341722;28;82208;-92
2021/05/15 00:17:09;;;;;;;2.05;0.40;;;15.10;77.10;15.10;99180.00;;;;342662;28;87446;-91
2021/05/15 00:17:20;;;;;;;2.22;0.40;;;15.10;77.20;15.00;99175.00;;;;340159;28;83528;-91
2021/05/15 00:17:30;;;;;;;1.63;0.50;;;15.10;77.20;15.00;99174.00;;;;341359;28;87483;-92
2021/05/15 00:17:41;;;;;;;1.83;0.43;;;15.10;77.20;15.00;99171.00;;;;341699;28;82966;-91
2021/05/15 00:17:52;;;;;;;1.80;0.50;;;15.10;77.10;15.00;99174.00;;;;339933;28;88631;-91
2021/05/15 00:18:03;;;;;;;1.48;0.40;;;15.10;77.10;15.10;99173.00;;;;342142;28;83476;-92
2021/05/15 00:18:14;;;;;;;1.50;0.43;;;15.10;77.00;14.90;99180.00;;;;344746;28;86709;-91
2021/05/15 00:18:25;;;;;;;1.90;0.80;;;15.10;76.90;14.90;99186.00;;;;343181;28;83294;-91
2021/05/15 00:18:36;;;;;;;2.17;0.90;;;15.00;76.80;14.90;99175.00;;;;343948;28;88519;-91
2021/05/15 00:18:47;;;;;;;2.92;0.90;;;15.10;76.80;14.80;99178.00;;;;344386;28;83257;-92
2021/05/15 00:18:57;;;;;;;2.47;0.45;;;15.10;76.70;15.00;99186.00;;;;345098;28;87735;-91
2021/05/15 00:19:08;;;;;;;1.80;0.40;;;15.00;76.70;15.10;99181.00;;;;344404;28;83223;-91
2021/05/15 00:19:19;;;;;;;1.48;0.47;;;15.00;76.80;15.00;99178.00;;;;342295;28;87285;-91
2021/05/15 00:19:29;;;;;;;2.17;0.60;;;15.10;76.80;14.80;99177.00;;;;345778;28;83120;-90
2021/05/15 00:19:40;;;;;;;2.50;0.60;;;15.10;77.00;14.80;99177.00;;;;342697;28;87387;-92
2021/05/15 00:19:51;;;;;;;2.30;0.50;;;15.00;77.00;14.80;99180.00;;;;343041;28;82181;-91
2021/05/15 00:20:02;;;;;;;2.20;0.60;;;15.00;76.90;14.70;99182.00;;;;342740;28;86544;-91
2021/05/15 00:20:15;;;;;;;1.88;0.63;;;15.00;76.80;14.70;99189.00;;;;343068;28;82284;-92
2021/05/15 00:20:26;;;;;;;2.03;0.52;;;15.00;76.80;15.00;99175.00;;;;342524;28;87973;-92
2021/05/15 00:20:36;;;;;;;1.80;0.60;;;15.00;76.90;15.00;99184.00;;;;342974;28;83372;-91
2021/05/15 00:20:47;;;;;;;2.33;0.50;;;15.00;76.80;14.80;99178.00;;;;342597;28;87693;-91
2021/05/15 00:20:58;;;;;;;3.30;0.60;;;15.00;76.80;14.80;99182.00;;;;341289;28;83677;-91
2021/05/15 00:21:08;;;;;;;3.08;0.60;;;15.00;77.20;14.80;99179.00;;;;341089;28;86771;-91
2021/05/15 00:21:19;;;;;;;2.50;0.70;;;14.90;77.20;14.70;99182.00;;;;341547;28;83383;-91
2021/05/15 00:21:30;;;;;;;3.13;0.60;;;14.90;76.90;14.60;99180.00;;;;343371;28;88446;-91
2021/05/15 00:21:40;;;;;;;3.47;0.50;;;14.90;76.80;14.60;99185.00;;;;344507;28;82405;-91
2021/05/15 00:21:51;;;;;;;3.37;0.50;;;14.90;76.60;14.60;99173.00;;;;342683;28;86542;-91
2021/05/15 00:22:02;;;;;;;2.42;0.40;;;14.90;76.60;14.80;99171.00;;;;343441;28;82435;-92
2021/05/15 00:22:12;;;;;;;2.88;0.50;;;14.80;76.50;14.80;99179.00;;;;344114;28;86502;-92
2021/05/15 00:22:23;;;;;;;3.17;0.50;;;14.90;76.90;14.70;99172.00;;;;344319;28;83452;-90
2021/05/15 00:22:33;;;;;;;2.42;0.50;;;14.80;77.20;14.80;99176.00;;;;344030;28;86715;-92
2021/05/15 00:22:44;;;;;;;1.67;0.50;;;14.90;77.30;14.90;99171.00;;;;342980;28;82450;-91
2021/05/15 00:22:55;;;;;;;1.90;0.60;;;14.90;77.30;14.80;99169.00;;;;342791;28;87726;-92
2021/05/15 00:23:05;;;;;;;1.70;0.60;;;14.90;77.40;14.80;99175.00;;;;344302;28;82412;-91
2021/05/15 00:23:16;;;;;;;1.33;0.50;;;14.80;77.20;14.70;99165.00;;;;341097;28;87575;-92
2021/05/15 00:23:27;;;;;;;1.23;0.30;;;14.90;77.30;14.70;99177.00;;;;343088;28;82477;-92
2021/05/15 00:23:37;;;;;;;1.17;0.30;;;14.80;77.20;14.70;99172.00;;;;342925;28;87799;-93
2021/05/15 00:23:48;;;;;;;1.65;0.40;;;14.80;77.20;14.70;99156.00;;;;343055;28;83130;-92
2021/05/15 00:23:59;;;;;;;2.10;0.50;;;14.80;77.30;14.70;99167.00;;;;342298;28;86873;-92
2021/05/15 00:24:10;;;;;;;2.40;0.50;;;14.80;77.20;14.90;99164.00;;;;343041;28;83352;-91
2021/05/15 00:24:20;;;;;;;2.20;0.50;;;14.80;77.20;14.80;99164.00;;;;342782;28;87779;-92
2021/05/15 00:24:31;;;;;;;1.90;0.43;;;14.80;77.20;14.80;99166.00;;;;344037;28;83330;-92
2021/05/15 00:24:42;;;;;;;1.80;0.30;;;14.80;77.20;14.90;99167.00;;;;344129;28;88027;-92
2021/05/15 00:24:52;;;;;;;1.33;0.32;;;14.80;77.10;14.90;99164.00;;;;343075;28;83306;-92
2021/05/15 00:25:06;;;;;;;1.40;0.47;;;14.80;77.00;14.90;99164.00;;;;341588;28;88750;-92
2021/05/15 00:25:19;;;;;;;1.50;0.60;;;14.80;77.00;15.00;99171.00;;;;340431;28;82491;-92
2021/05/15 00:25:30;;;;;;;1.50;0.68;;;14.80;77.10;15.10;99167.00;;;;342866;28;86978;-92
2021/05/15 00:25:41;;;;;;;1.30;0.70;;;14.80;77.20;14.90;99172.00;;;;339158;28;83845;-92
2021/05/15 00:25:52;;;;;;;1.67;0.63;;;14.80;77.40;14.70;99157.00;;;;339727;28;87241;-92
2021/05/15 00:26:02;;;;;;;2.92;0.75;;;14.90;77.50;14.70;99166.00;;;;341878;28;83419;-91
2021/05/15 00:26:14;;;;;;;2.85;0.70;;;14.80;77.30;14.80;99165.00;;;;344214;28;86571;-92
2021/05/15 00:26:26;;;;;;;2.30;0.60;;;14.80;77.30;14.70;99161.00;;;;340555;28;83371;-92
2021/05/15 00:26:37;;;;;;;1.73;0.40;;;14.80;77.30;15.00;99164.00;;;;340116;28;88004;-92
2021/05/15 00:26:48;;;;;;;1.70;0.38;;;14.80;77.30;15.00;99163.00;;;;340454;28;83266;-92
2021/05/15 00:26:58;;;;;;;1.33;0.50;;;14.80;77.40;14.90;99165.00;;;;339791;28;87939;-92
2021/05/15 00:27:09;;;;;;;1.35;0.50;;;14.80;78.00;14.80;99170.00;;;;341541;28;83431;-92
2021/05/15 00:27:20;;;;;;;1.67;0.45;;;14.80;77.80;14.70;99168.00;;;;341384;28;87738;-92
2021/05/15 00:27:30;;;;;;;2.13;0.40;;;14.80;77.90;14.60;99166.00;;;;341545;28;83423;-91
2021/05/15 00:27:41;;;;;;;2.22;0.70;;;14.80;77.80;14.70;99166.00;;;;341335;28;86381;-91
2021/05/15 00:27:52;;;;;;;2.45;0.57;;;14.80;77.50;14.80;99168.00;;;;341712;28;83158;-92
2021/05/15 00:28:02;;;;;;;2.77;0.50;;;14.80;77.40;14.70;99170.00;;;;341677;28;87229;-93
2021/05/15 00:28:13;;;;;;;2.20;0.30;;;14.80;77.30;14.80;99164.00;;;;340367;28;82402;-92
2021/05/15 00:28:24;;;;;;;1.65;0.35;;;14.80;77.30;14.70;99159.00;;;;339984;28;86921;-92
2021/05/15 00:28:34;;;;;;;3.75;0.60;;;14.80;77.40;14.50;99170.00;;;;340401;28;83363;-92
2021/05/15 00:28:45;;;;;;;3.90;0.60;;;14.80;77.40;14.60;99161.00;;;;339920;28;88492;-91
2021/05/15 00:28:56;;;;;;;4.55;0.45;;;14.70;77.40;14.70;99161.00;;;;341513;28;83338;-91
2021/05/15 00:29:08;;;;;;;2.10;0.30;;;14.70;77.30;14.60;99170.00;;;;339886;28;87975;-92
2021/05/15 00:29:19;;;;;;;1.80;0.30;;;14.70;77.30;14.60;99168.00;;;;340389;28;82372;-92
2021/05/15 00:29:29;;;;;;;1.00;0.30;;;14.70;77.20;14.70;99171.00;;;;342625;28;86647;-90
2021/05/15 00:29:40;;;;;;;0.90;0.30;;;14.70;77.30;14.90;99176.00;;;;341758;28;83081;-92
2021/05/15 00:29:51;;;;;;;0.88;0.30;;;14.70;77.20;14.90;99175.00;;;;340033;28;87655;-92
2021/05/15 00:30:04;;;;;;;0.80;0.40;;;14.70;77.20;15.00;99167.00;;;;341097;28;83889;-91
2021/05/15 00:30:15;;;;;;;1.05;0.38;;;14.70;77.40;14.80;99163.00;;;;343975;28;89090;-92
2021/05/15 00:30:26;;;;;;;1.20;0.30;;;14.70;77.60;14.80;99161.00;;;;339759;28;83246;-92
2021/05/15 00:30:37;;;;;;;5.05;0.50;;;14.70;77.70;14.70;99154.00;;;;341816;28;87480;-92
2021/05/15 00:30:47;;;;;;;5.70;0.50;;;14.70;77.70;14.80;99162.00;;;;342300;28;83389;-92
2021/05/15 00:30:58;;;;;;;5.73;0.50;;;14.70;77.60;14.90;99163.00;;;;341393;28;87891;-91
2021/05/15 00:31:09;;;;;;;1.92;0.30;;;14.70;77.50;14.80;99162.00;;;;340902;28;82347;-91
2021/05/15 00:31:20;;;;;;;1.80;0.30;;;14.70;77.70;14.70;99170.00;;;;340428;28;87696;-92
2021/05/15 00:31:31;;;;;;;1.65;0.30;;;14.70;77.70;14.60;99162.00;;;;340785;28;83310;-93
2021/05/15 00:31:41;;;;;;;2.05;0.40;;;14.70;77.60;14.50;99160.00;;;;340621;28;86484;-92
2021/05/15 00:31:52;;;;;;;1.37;0.40;;;14.70;77.70;14.50;99168.00;;;;340885;28;82241;-92
2021/05/15 00:32:03;;;;;;;1.17;0.40;;;14.60;77.80;14.50;99161.00;;;;341533;28;86712;-92
2021/05/15 00:32:14;;;;;;;0.70;0.30;;;14.70;77.90;14.40;99160.00;;;;340844;28;82317;-90
2021/05/15 00:32:25;;;;;;;1.80;0.30;;;14.60;77.90;14.50;99160.00;;;;340403;28;87460;-92
2021/05/15 00:32:35;;;;;;;2.10;0.30;;;14.60;77.90;14.60;99160.00;;;;339475;28;83388;-91
2021/05/15 00:32:46;;;;;;;2.03;0.27;;;14.60;77.90;14.70;99159.00;;;;341836;28;87953;-91
2021/05/15 00:32:57;;;;;;;1.00;0.20;;;14.60;77.80;14.70;99159.00;;;;341488;28;83258;-92
2021/05/15 00:33:07;;;;;;;0.90;0.30;;;14.70;77.80;14.80;99157.00;;;;341461;28;86259;-91
2021/05/15 00:33:18;;;;;;;1.42;0.30;;;14.60;77.80;14.80;99161.00;;;;340727;28;83583;-91
2021/05/15 00:33:29;;;;;;;1.43;0.30;;;14.70;77.80;14.90;99157.00;;;;341071;28;87768;-92
2021/05/15 00:33:39;;;;;;;1.50;0.30;;;14.70;77.80;14.70;99165.00;;;;342275;28;82371;-90
2021/05/15 00:33:50;;;;;;;2.63;0.30;;;14.70;78.00;14.70;99159.00;;;;341844;28;87783;-91
2021/05/15 00:34:01;;;;;;;2.60;0.30;;;14.70;78.20;14.60;99158.00;;;;342708;28;82732;-92
2021/05/15 00:34:11;;;;;;;2.10;0.20;;;14.70;78.20;14.70;99166.00;;;;340562;28;87294;-92
2021/05/15 00:34:22;;;;;;;0.90;0.30;;;14.60;78.00;14.80;99163.00;;;;340495;28;82485;-90
2021/05/15 00:34:33;;;;;;;2.10;0.40;;;14.70;78.10;14.80;99163.00;;;;341836;28;87844;-92
2021/05/15 00:34:43;;;;;;;2.33;0.43;;;14.70;78.10;14.90;99164.00;;;;343546;28;83265;-91
2021/05/15 00:34:54;;;;;;;2.55;0.40;;;14.70;78.10;14.70;99158.00;;;;341690;28;87658;-92
2021/05/15 00:35:06;;;;;;;2.30;0.50;;;14.70;78.10;14.80;99167.00;;;;344940;28;82391;-92
2021/05/15 00:35:16;;;;;;;1.95;0.40;;;14.70;78.00;14.60;99163.00;;;;340402;28;87940;-89
2021/05/15 00:35:27;;;;;;;1.77;0.38;;;14.70;78.30;14.50;99166.00;;;;342502;28;83277;-91
2021/05/15 00:35:38;;;;;;;1.70;0.50;;;14.60;78.30;14.30;99178.00;;;;339441;28;87916;-92
2021/05/15 00:35:48;;;;;;;2.50;0.70;;;14.60;78.30;14.30;99164.00;;;;342448;28;83291;-91
2021/05/15 00:35:59;;;;;;;2.38;0.60;;;14.50;78.10;14.30;99162.00;;;;339918;28;88650;-92
2021/05/15 00:36:10;;;;;;;1.90;0.57;;;14.50;78.70;14.30;99174.00;;;;341000;28;83513;-90
2021/05/15 00:36:20;;;;;;;1.60;0.47;;;14.50;78.10;14.30;99167.00;;;;343051;28;86687;-92
2021/05/15 00:36:31;;;;;;;1.88;0.50;;;14.50;78.40;14.30;99171.00;;;;341668;28;82397;-91
2021/05/15 00:36:42;;;;;;;3.00;0.50;;;14.50;78.50;14.20;99174.00;;;;343055;28;87617;-92
2021/05/15 00:36:52;;;;;;;2.50;0.50;;;14.50;78.60;14.20;99174.00;;;;343188;28;83370;-91
2021/05/15 00:37:03;;;;;;;2.00;0.40;;;14.40;78.60;14.10;99171.00;;;;339157;28;87600;-92
2021/05/15 00:37:14;;;;;;;3.30;0.43;;;14.40;78.60;14.10;99178.00;;;;340552;28;83398;-91
2021/05/15 00:37:24;;;;;;;3.63;0.40;;;14.40;78.60;14.10;99170.00;;;;340144;28;87653;-92
2021/05/15 00:37:35;;;;;;;3.72;0.40;;;14.40;78.70;14.20;99174.00;;;;340556;28;83468;-92
2021/05/15 00:37:46;;;;;;;1.40;0.30;;;14.40;78.70;14.20;99173.00;;;;340182;28;88529;-91
2021/05/15 00:37:57;;;;;;;1.10;0.40;;;14.30;79.10;14.30;99168.00;;;;340438;28;83572;-92
2021/05/15 00:38:07;;;;;;;1.00;0.33;;;14.40;79.20;14.30;99176.00;;;;342905;28;87702;-91
2021/05/15 00:38:18;;;;;;;1.30;0.35;;;14.30;79.00;14.30;99175.00;;;;341656;28;83367;-92
2021/05/15 00:38:29;;;;;;;1.92;0.32;;;14.40;78.90;14.40;99173.00;;;;341443;28;89946;-92
2021/05/15 00:38:40;;;;;;;1.73;0.30;;;14.40;79.00;14.60;99178.00;;;;340320;28;83619;-91
2021/05/15 00:38:50;;;;;;;1.90;0.40;;;14.40;79.00;14.60;99167.00;;;;341605;28;86475;-92
2021/05/15 00:39:01;;;;;;;1.20;0.40;;;14.40;79.10;14.60;99164.00;;;;341300;28;83554;-91
2021/05/15 00:39:12;;;;;;;1.30;0.40;;;14.40;79.00;14.70;99169.00;;;;340250;28;86471;-92
2021/05/15 00:39:22;;;;;;;1.23;0.40;;;14.40;78.90;14.70;99170.00;;;;341685;28;83488;-91
2021/05/15 00:39:33;;;;;;;1.80;0.60;;;14.40;78.90;14.70;99169.00;;;;342583;28;87645;-91
2021/05/15 00:39:44;;;;;;;2.05;0.50;;;14.40;78.80;14.60;99176.00;;;;343212;28;82481;-92
2021/05/15 00:39:55;;;;;;;2.03;0.50;;;14.40;78.90;14.70;99169.00;;;;344134;28;87430;-88
2021/05/15 00:40:10;;;;;;;1.63;0.30;;;14.40;78.80;14.70;99175.00;;;;341758;28;83536;-92
2021/05/15 00:40:20;;;;;;;1.52;0.30;;;14.50;78.70;14.80;99171.00;;;;341437;28;87960;-92
2021/05/15 00:40:31;;;;;;;1.63;0.40;;;14.50;78.70;14.70;99169.00;;;;341856;28;83774;-91
2021/05/15 00:40:42;;;;;;;2.08;0.43;;;14.50;79.30;14.60;99177.00;;;;342926;28;87855;-92
2021/05/15 00:40:53;;;;;;;1.85;0.45;;;14.50;79.20;14.70;99168.00;;;;340386;28;83410;-92
2021/05/15 00:41:03;;;;;;;2.38;0.40;;;14.50;78.80;14.60;99174.00;;;;341383;28;88492;-91
2021/05/15 00:41:15;;;;;;;1.67;0.30;;;14.50;79.10;14.70;99169.00;;;;341810;28;83437;-91
2021/05/15 00:41:25;;;;;;;2.30;0.30;;;14.50;79.10;14.60;99168.00;;;;340139;28;88992;-92
2021/05/15 00:41:37;;;;;;;2.20;0.30;;;14.50;79.30;14.60;99170.00;;;;340565;28;83535;-92
2021/05/15 00:41:48;;;;;;;2.60;0.60;;;14.50;79.30;14.60;99174.00;;;;342826;28;86787;-92
2021/05/15 00:41:59;;;;;;;2.75;0.80;;;14.50;79.00;14.60;99175.00;;;;341834;28;83950;-92
2021/05/15 00:42:10;;;;;;;2.80;0.80;;;14.50;79.00;14.50;99170.00;;;;341761;28;87733;-91
2021/05/15 00:42:21;;;;;;;1.10;0.50;;;14.50;79.10;14.50;99167.00;;;;344636;28;83202;-92
2021/05/15 00:42:32;;;;;;;1.08;0.50;;;14.50;79.30;14.50;99163.00;;;;343856;28;88285;-91
2021/05/15 00:42:46;;;;;;;1.30;0.55;;;14.50;79.70;14.50;99162.00;;;;343199;28;83377;-91
2021/05/15 00:42:57;;;;;;;1.60;0.47;;;14.50;80.00;14.60;99165.00;;;;341398;28;86714;-92
2021/05/15 00:43:09;;;;;;;1.60;0.38;;;14.50;80.00;14.50;99169.00;;;;341839;28;83364;-92
2021/05/15 00:43:19;;;;;;;1.40;0.30;;;14.50;79.70;14.50;99169.00;;;;342761;28;89391;-90
2021/05/15 00:43:30;;;;;;;1.10;0.30;;;14.50;80.10;14.50;99165.00;;;;339212;28;82430;-91
2021/05/15 00:43:59;;;;;;;1.10;0.30;;;14.50;79.90;14.50;99164.00;;;;342919;28;86798;-92
2021/05/15 00:44:44;;;;;;;2.15;0.52;;;14.40;80.00;14.50;99164.00;;;;340507;28;83607;-92
2021/05/15 00:44:55;;;;;;;2.20;0.52;;;14.40;80.00;14.60;99164.00;;;;341165;28;88078;-92
2021/05/15 00:45:10;;;;;;;1.92;0.40;;;14.40;79.70;14.50;99162.00;;;;341833;28;83249;-91
2021/05/15 00:45:21;;;;;;;1.20;0.30;;;14.40;79.60;14.50;99159.00;;;;342629;28;87516;-92
2021/05/15 00:45:32;;;;;;;1.17;0.30;;;14.40;79.90;14.60;99153.00;;;;341597;28;82507;-92
2021/05/15 00:45:42;;;;;;;1.47;0.40;;;14.40;79.80;14.50;99154.00;;;;342781;28;88450;-92
2021/05/15 00:45:53;;;;;;;1.50;0.40;;;14.40;80.00;14.50;99156.00;;;;340409;28;83162;-92
2021/05/15 00:46:04;;;;;;;1.35;0.40;;;14.40;80.00;14.50;99155.00;;;;340398;28;86579;-92
2021/05/15 00:46:14;;;;;;;1.27;0.40;;;14.40;80.10;14.50;99148.00;;;;339253;28;83110;-93
2021/05/15 00:46:28;;;;;;;1.70;0.40;;;14.40;80.00;14.50;99151.00;;;;338852;28;87783;-90
2021/05/15 00:46:39;;;;;;;2.17;0.50;;;14.40;79.80;14.60;99154.00;;;;340419;28;82356;-92
2021/05/15 00:46:49;;;;;;;2.25;0.63;;;14.40;80.30;14.50;99151.00;;;;340219;28;88346;-91
2021/05/15 00:47:00;;;;;;;3.93;0.90;;;14.40;79.80;14.50;99146.00;;;;343305;28;83259;-91
2021/05/15 00:47:19;;;;;;;3.17;0.75;;;14.40;79.70;14.70;99147.00;;;;341458;28;86540;-91
2021/05/15 00:47:30;;;;;;;2.25;0.40;;;14.40;79.60;14.90;99150.00;;;;340525;28;83215;-91
2021/05/15 00:47:40;;;;;;;2.13;0.37;;;14.50;79.80;14.90;99143.00;;;;342765;28;88645;-92
2021/05/15 00:47:51;;;;;;;2.00;0.32;;;14.50;79.70;14.90;99141.00;;;;343274;28;82337;-92
2021/05/15 00:48:03;;;;;;;1.27;0.30;;;14.50;79.60;14.90;99153.00;;;;341009;28;87802;-92
2021/05/15 00:48:14;;;;;;;1.27;0.30;;;14.50;79.40;14.80;99145.00;;;;340323;28;83409;-89
2021/05/15 00:48:25;;;;;;;1.30;0.40;;;14.60;79.90;14.80;99147.00;;;;341135;28;87831;-92
2021/05/15 00:48:36;;;;;;;1.90;0.50;;;14.50;79.80;14.80;99141.00;;;;341849;28;82297;-92
2021/05/15 00:48:47;;;;;;;2.17;0.60;;;14.50;79.70;14.80;99150.00;;;;345551;28;87876;-93
2021/05/15 00:48:57;;;;;;;1.95;0.50;;;14.50;79.80;14.70;99144.00;;;;342939;28;82354;-91
2021/05/15 00:49:08;;;;;;;1.57;0.57;;;14.50;80.10;14.60;99140.00;;;;338894;28;88555;-92
2021/05/15 00:49:19;;;;;;;1.60;0.65;;;14.50;80.00;14.70;99144.00;;;;340500;28;83781;-91
2021/05/15 00:49:29;;;;;;;2.00;0.68;;;14.50;79.70;14.60;99135.00;;;;341476;28;88654;-91
2021/05/15 00:49:40;;;;;;;1.90;0.50;;;14.50;79.70;14.70;99145.00;;;;342006;28;82176;-92
2021/05/15 00:49:51;;;;;;;2.15;0.45;;;14.60;79.90;14.60;99144.00;;;;340091;28;87730;-91
2021/05/15 00:50:04;;;;;;;3.67;0.80;;;14.60;80.10;14.60;99141.00;;;;341834;28;83387;-92